Time;durP1;ratioP1;P1;durP2;ratioP2;P2;SDS_P1;SDS_P2;PMS_P1;PMS_P2;Temp;Humidity;BMP_temperature;BMP_pressure;BME280_temperature;BME280_humidity;BME280_pressure;Samples;Min_cycle;Max_cycle;Signal;HPM_P1;HPM_P2
2021/12/22 00:00:14;;;;;;;43.72;18.75;;;;;;;-6.77;96.67;102762.28;2080633;28;27813;-60
2021/12/22 00:01:15;;;;;;;51.20;20.67;;;;;;;-6.72;96.67;102763.53;2080098;28;46265;-60
2021/12/22 00:02:24;;;;;;;49.95;21.50;;;;;;;-6.70;96.71;102759.34;2080324;28;43373;-59
2021/12/22 00:03:26;;;;;;;49.72;23.63;;;;;;;-6.73;96.53;102757.44;2080412;28;45552;-60
2021/12/22 00:04:30;;;;;;;50.95;23.48;;;;;;;-6.72;96.56;102753.13;2079942;28;46540;-59
2021/12/22 00:05:32;;;;;;;54.28;22.08;;;;;;;-6.70;96.86;102764.56;2071970;28;31258;-60
2021/12/22 00:06:36;;;;;;;54.05;23.80;;;;;;;-6.67;96.90;102757.00;2055143;28;45352;-60
2021/12/22 00:07:38;;;;;;;47.83;20.98;;;;;;;-6.67;96.74;102764.81;2064243;28;45939;-60
2021/12/22 00:08:40;;;;;;;48.65;19.75;;;;;;;-6.69;96.52;102763.78;2080466;28;37293;-59
2021/12/22 00:09:42;;;;;;;59.20;26.20;;;;;;;-6.69;96.29;102761.19;2080250;28;44851;-60
2021/12/22 00:10:47;;;;;;;48.30;22.17;;;;;;;-6.74;96.49;102753.00;2071059;28;42091;-60
2021/12/22 00:11:51;;;;;;;38.47;18.48;;;;;;;-6.81;95.77;102761.13;2072262;28;44280;-60
2021/12/22 00:12:53;;;;;;;44.85;20.00;;;;;;;-6.81;95.74;102762.84;2080093;28;45710;-60
2021/12/22 00:13:55;;;;;;;46.50;20.88;;;;;;;-6.83;95.87;102756.63;2080301;28;45429;-60
2021/12/22 00:14:57;;;;;;;50.88;23.20;;;;;;;-6.83;95.96;102754.91;2080081;28;46829;-60
2021/12/22 00:15:59;;;;;;;43.58;18.65;;;;;;;-6.88;95.74;102765.75;2080719;28;43767;-60
2021/12/22 00:17:03;;;;;;;41.10;20.75;;;;;;;-6.92;95.49;102757.69;2080967;28;44386;-60
2021/12/22 00:18:05;;;;;;;39.30;16.17;;;;;;;-6.96;95.24;102757.38;2079683;28;45493;-60
2021/12/22 00:19:07;;;;;;;40.20;20.30;;;;;;;-6.96;95.46;102759.97;2080132;28;44209;-59
2021/12/22 00:20:12;;;;;;;44.47;21.73;;;;;;;-6.98;95.73;102757.25;2080640;28;32563;-59
2021/12/22 00:21:14;;;;;;;43.45;21.67;;;;;;;-7.00;95.75;102764.03;2080119;28;43711;-60
2021/12/22 00:22:16;;;;;;;46.15;21.80;;;;;;;-6.99;95.88;102752.81;2080090;28;44264;-60
2021/12/22 00:23:22;;;;;;;42.22;19.73;;;;;;;-6.97;95.96;102761.66;2080450;28;46143;-60
2021/12/22 00:24:24;;;;;;;50.35;22.42;;;;;;;-6.97;96.27;102753.84;2080166;28;43791;-59
2021/12/22 00:25:26;;;;;;;45.28;21.10;;;;;;;-6.95;96.39;102765.28;2080288;28;44835;-58
2021/12/22 00:26:28;;;;;;;44.08;20.85;;;;;;;-6.92;96.38;102762.91;2080453;28;42194;-60
2021/12/22 00:27:30;;;;;;;38.13;19.33;;;;;;;-6.94;96.14;102764.50;2071270;28;45441;-61
2021/12/22 00:28:32;;;;;;;44.58;20.95;;;;;;;-6.99;95.80;102765.81;2070870;28;46239;-59
2021/12/22 00:29:36;;;;;;;39.97;18.67;;;;;;;-6.96;95.87;102762.56;2081319;28;21199;-60
2021/12/22 00:30:41;;;;;;;44.65;20.95;;;;;;;-6.96;95.80;102768.69;2081096;28;20272;-60
2021/12/22 00:31:57;;;;;;;51.00;24.73;;;;;;;-6.92;96.24;102767.22;2079633;28;45849;-61
2021/12/22 00:33:04;;;;;;;42.35;21.50;;;;;;;-7.01;96.01;102770.00;2080373;28;45485;-60
2021/12/22 00:34:14;;;;;;;34.05;17.67;;;;;;;-7.05;95.42;102775.78;2079903;28;46155;-60
2021/12/22 00:35:20;;;;;;;44.00;21.75;;;;;;;-7.04;95.55;102769.75;2079717;28;44023;-60
2021/12/22 00:36:24;;;;;;;40.97;19.30;;;;;;;-7.04;95.86;102768.88;2080073;28;44060;-59
2021/12/22 00:37:28;;;;;;;37.83;20.08;;;;;;;-7.06;95.84;102766.13;2080051;28;45674;-60
2021/12/22 00:38:30;;;;;;;32.85;17.20;;;;;;;-7.06;95.73;102766.13;2071099;28;44006;-60
2021/12/22 00:39:32;;;;;;;40.53;19.98;;;;;;;-7.07;95.75;102768.63;2071648;28;45385;-60
2021/12/22 00:40:33;;;;;;;41.53;21.23;;;;;;;-7.08;95.96;102770.31;2079934;28;43411;-60
2021/12/22 00:41:35;;;;;;;43.80;22.13;;;;;;;-7.07;95.88;102772.13;2080638;28;29172;-60
2021/12/22 00:42:37;;;;;;;43.35;20.02;;;;;;;-7.10;95.65;102774.50;2079600;28;45927;-60
2021/12/22 00:43:39;;;;;;;42.60;20.10;;;;;;;-7.13;95.53;102769.94;2080194;28;44006;-60
2021/12/22 00:44:42;;;;;;;41.40;21.40;;;;;;;-7.14;95.77;102769.81;2080286;28;29527;-60
2021/12/22 00:45:55;;;;;;;33.90;16.30;;;;;;;-7.19;95.46;102768.59;2080768;28;20272;-60
2021/12/22 00:46:57;;;;;;;38.50;19.20;;;;;;;-7.22;95.13;102768.34;2080330;28;45309;-60
2021/12/22 00:47:59;;;;;;;34.72;18.63;;;;;;;-7.19;95.68;102771.19;2080408;28;32768;-60
2021/12/22 00:49:03;;;;;;;41.33;20.85;;;;;;;-7.19;95.82;102768.59;2080454;28;45187;-60
2021/12/22 00:50:05;;;;;;;45.67;21.70;;;;;;;-7.23;94.95;102764.84;2080936;28;20253;-60
2021/12/22 00:51:08;;;;;;;44.15;21.05;;;;;;;-7.22;95.25;102761.44;2079902;28;43356;-60
2021/12/22 00:52:10;;;;;;;46.72;22.73;;;;;;;-7.22;95.61;102764.03;2080135;28;45668;-60
2021/12/22 00:53:11;;;;;;;46.15;22.00;;;;;;;-7.17;95.75;102754.00;2079922;28;45199;-60
2021/12/22 00:54:13;;;;;;;47.90;22.88;;;;;;;-7.16;96.02;102771.41;2079949;28;42524;-60
2021/12/22 00:55:18;;;;;;;38.10;18.50;;;;;;;-7.21;95.87;102765.84;2080146;28;45505;-60
2021/12/22 00:56:20;;;;;;;42.67;20.88;;;;;;;-7.25;95.43;102761.19;2080032;28;44295;-60
2021/12/22 00:57:22;;;;;;;31.42;16.60;;;;;;;-7.24;95.48;102767.31;2079895;28;45299;-60
2021/12/22 00:58:24;;;;;;;46.65;22.90;;;;;;;-7.26;95.24;102772.38;2080357;28;28744;-60
2021/12/22 00:59:25;;;;;;;39.67;19.60;;;;;;;-7.29;95.52;102767.84;2080190;28;42102;-60
2021/12/22 01:00:27;;;;;;;37.50;17.88;;;;;;;-7.28;95.26;102773.97;2079545;28;43991;-60
2021/12/22 01:01:31;;;;;;;38.08;19.48;;;;;;;-7.31;95.54;102772.00;2079936;28;44670;-60
2021/12/22 01:02:35;;;;;;;36.75;18.45;;;;;;;-7.26;95.76;102771.50;2080060;28;42818;-59
2021/12/22 01:03:37;;;;;;;36.47;18.77;;;;;;;-7.26;95.89;102779.28;2079678;28;44913;-60
2021/12/22 01:04:40;;;;;;;36.65;17.83;;;;;;;-7.26;95.76;102774.09;2080045;28;42598;-60
2021/12/22 01:05:42;;;;;;;36.55;18.92;;;;;;;-7.25;95.82;102768.09;2080017;28;43926;-60
2021/12/22 01:06:45;;;;;;;44.13;21.85;;;;;;;-7.29;95.63;102772.13;2080236;28;22460;-60
2021/12/22 01:07:49;;;;;;;38.85;18.65;;;;;;;-7.27;95.54;102775.75;2062588;28;45514;-60
2021/12/22 01:08:51;;;;;;;42.92;21.20;;;;;;;-7.27;95.66;102769.66;2063008;28;45155;-60
2021/12/22 01:09:52;;;;;;;49.75;22.95;;;;;;;-7.26;95.68;102769.78;2079576;28;42126;-60
2021/12/22 01:10:55;;;;;;;42.70;20.92;;;;;;;-7.22;96.15;102768.34;2080145;28;45314;-60
2021/12/22 01:11:58;;;;;;;42.80;20.42;;;;;;;-7.20;95.75;102774.56;2070812;28;44959;-60
2021/12/22 01:13:03;;;;;;;42.40;21.90;;;;;;;-7.16;96.03;102774.00;2071249;28;42336;-60
2021/12/22 01:14:05;;;;;;;47.50;22.55;;;;;;;-7.16;96.24;102774.00;2079810;28;44837;-60
2021/12/22 01:15:12;;;;;;;43.97;21.02;;;;;;;-7.16;96.41;102774.00;2072324;28;20997;-60
2021/12/22 01:16:14;;;;;;;40.63;20.52;;;;;;;-7.19;96.10;102776.41;2072175;28;44028;-60
2021/12/22 01:17:17;;;;;;;37.30;19.25;;;;;;;-7.21;95.76;102776.25;2079856;28;46377;-60
2021/12/22 01:18:29;;;;;;;37.53;19.92;;;;;;;-7.23;95.52;102771.72;2081620;28;20253;-60
2021/12/22 01:23:01;;;;;;;43.75;21.83;;;;;;;-7.29;95.57;102777.34;2079551;28;45223;-60
2021/12/22 01:23:37;;;;;;;47.15;20.77;;;;;;;-7.30;95.98;102781.66;2069606;28;33560;-60
2021/12/22 01:24:41;;;;;;;48.05;22.10;;;;;;;-7.26;95.91;102788.00;2080102;28;43484;-61
2021/12/22 01:25:44;;;;;;;46.38;20.88;;;;;;;-7.30;95.36;102785.94;2079658;28;44065;-60
2021/12/22 01:26:51;;;;;;;40.75;19.10;;;;;;;-7.31;95.86;102786.72;2079788;28;44757;-60
2021/12/22 01:27:53;;;;;;;42.72;19.13;;;;;;;-7.32;95.24;102785.81;2079482;28;43826;-61
2021/12/22 01:28:55;;;;;;;41.80;20.75;;;;;;;-7.33;95.10;102783.09;2079907;28;45050;-61
2021/12/22 01:29:57;;;;;;;47.88;21.90;;;;;;;-7.33;95.49;102786.59;2075988;28;42464;-61
2021/12/22 01:31:03;;;;;;;51.72;24.02;;;;;;;-7.32;95.29;102784.91;2079967;28;45384;-61
2021/12/22 01:32:09;;;;;;;46.42;21.52;;;;;;;-7.32;95.84;102779.69;2079492;28;46030;-60
2021/12/22 01:33:12;;;;;;;49.13;22.50;;;;;;;-7.32;95.44;102779.69;2079340;28;45450;-61
2021/12/22 01:34:14;;;;;;;48.30;21.95;;;;;;;-7.26;96.35;102781.91;2080173;28;29607;-60
2021/12/22 01:35:21;;;;;;;37.00;18.17;;;;;;;-7.29;95.83;102778.25;2080083;28;43739;-60
2021/12/22 01:36:23;;;;;;;45.78;20.45;;;;;;;-7.30;95.73;102771.25;2079196;28;45376;-60
2021/12/22 01:37:27;;;;;;;44.55;20.88;;;;;;;-7.25;95.57;102778.50;2080291;28;29146;-60
2021/12/22 01:38:29;;;;;;;43.08;21.20;;;;;;;-7.25;96.24;102774.19;2079367;28;42132;-60
2021/12/22 01:39:30;;;;;;;43.60;20.50;;;;;;;-7.25;96.17;102771.59;2079792;28;44244;-60
2021/12/22 01:40:38;;;;;;;39.95;20.38;;;;;;;-7.27;95.86;102772.25;2079537;28;45723;-60
2021/12/22 01:41:42;;;;;;;45.80;21.55;;;;;;;-7.29;95.83;102772.13;2079898;28;43701;-60
2021/12/22 01:42:45;;;;;;;42.60;19.48;;;;;;;-7.29;96.25;102775.63;2080112;28;28178;-61
2021/12/22 01:43:48;;;;;;;38.85;17.92;;;;;;;-7.25;96.08;102775.88;2079284;28;43545;-61
2021/12/22 01:45:24;;;;;;;50.45;21.33;;;;;;;-7.25;95.77;102770.69;2079407;28;44100;-61
2021/12/22 01:49:10;;;;;;;42.80;18.67;;;;;;;-7.29;96.21;102773.03;2079867;28;46525;-60
2021/12/22 01:50:17;;;;;;;52.88;20.75;;;;;;;-7.31;95.37;102766.81;2080127;28;42246;-58
2021/12/22 01:51:19;;;;;;;62.60;23.88;;;;;;;-7.30;95.82;102771.25;2079765;28;44258;-60
2021/12/22 01:52:22;;;;;;;59.97;21.35;;;;;;;-7.29;95.70;102764.34;2079716;28;45172;-58
2021/12/22 01:53:23;;;;;;;60.00;23.95;;;;;;;-7.25;96.26;102763.78;2070805;28;43790;-60
2021/12/22 01:54:31;;;;;;;66.35;22.15;;;;;;;-7.26;96.34;102763.69;2071200;28;46134;-61
2021/12/22 01:55:37;;;;;;;67.60;23.67;;;;;;;-7.26;96.05;102777.59;2079509;28;43713;-59
2021/12/22 01:56:39;;;;;;;87.18;26.23;;;;;;;-7.32;96.21;102767.63;2070985;28;43960;-58
2021/12/22 01:57:48;;;;;;;73.15;24.65;;;;;;;-7.35;95.92;102772.56;2071797;28;46257;-58
2021/12/22 01:58:55;;;;;;;80.88;25.45;;;;;;;-7.37;94.96;102770.66;2080027;28;44060;-58
2021/12/22 01:59:59;;;;;;;65.47;23.35;;;;;;;-7.40;95.12;102773.88;2070302;28;47958;-60
2021/12/22 02:01:03;;;;;;;53.10;20.45;;;;;;;-7.45;95.15;102774.31;2071698;28;27130;-58
2021/12/22 02:02:09;;;;;;;60.80;22.50;;;;;;;-7.47;95.52;102776.78;2071496;28;44005;-58
2021/12/22 02:03:11;;;;;;;62.67;23.10;;;;;;;-7.49;95.36;102770.56;2062889;28;45052;-58
2021/12/22 02:04:14;;;;;;;64.15;22.40;;;;;;;-7.48;95.49;102764.59;2062940;28;43465;-61
2021/12/22 02:05:16;;;;;;;70.55;23.52;;;;;;;-7.49;95.33;102774.06;2071315;28;45795;-60
2021/12/22 02:06:19;;;;;;;64.30;21.00;;;;;;;-7.50;95.89;102769.66;2071424;28;45668;-58
2021/12/22 02:07:23;;;;;;;70.50;23.98;;;;;;;-7.48;95.84;102772.38;2071407;28;45283;-58
2021/12/22 02:08:27;;;;;;;63.47;22.02;;;;;;;-7.47;95.68;102779.38;2071293;28;44872;-60
2021/12/22 02:10:49;;;;;;;66.05;22.35;;;;;;;-7.43;95.67;102775.34;2072088;28;43986;-60
2021/12/22 02:11:51;;;;;;;75.40;24.98;;;;;;;-7.45;95.44;102774.31;2071188;28;45940;-60
2021/12/22 02:12:54;;;;;;;81.75;25.08;;;;;;;-7.41;96.22;102777.28;2071453;28;45400;-60
2021/12/22 02:14:02;;;;;;;63.63;22.02;;;;;;;-7.45;96.01;102774.31;2071319;28;44221;-60
2021/12/22 02:15:06;;;;;;;76.43;23.75;;;;;;;-7.44;96.25;102777.03;2071329;28;44092;-58
2021/12/22 02:16:14;;;;;;;76.40;24.27;;;;;;;-7.45;96.04;102775.22;2071246;28;44186;-61
2021/12/22 02:17:16;;;;;;;82.10;25.60;;;;;;;-7.47;95.39;102774.19;2071345;28;45810;-60
2021/12/22 02:18:20;;;;;;;60.38;21.20;;;;;;;-7.48;95.57;102775.00;2062431;28;45210;-61
2021/12/22 02:19:24;;;;;;;67.40;23.73;;;;;;;-7.49;95.14;102773.16;2062940;28;46609;-60
2021/12/22 02:20:28;;;;;;;77.60;22.98;;;;;;;-7.46;95.74;102773.41;2072966;28;42121;-58
2021/12/22 02:21:37;;;;;;;75.35;25.60;;;;;;;-7.43;96.09;102781.44;2074204;28;21201;-61
2021/12/22 02:22:41;;;;;;;71.65;24.80;;;;;;;-7.46;95.58;102778.63;2072945;28;44675;-60
2021/12/22 02:23:44;;;;;;;56.85;18.98;;;;;;;-7.52;95.71;102767.72;2072432;28;43528;-61
2021/12/22 02:24:50;;;;;;;55.33;20.13;;;;;;;-7.55;95.58;102773.59;2072814;28;45262;-60
2021/12/22 02:25:57;;;;;;;62.47;21.48;;;;;;;-7.56;95.47;102770.84;2073073;28;25957;-60
2021/12/22 02:27:05;;;;;;;73.40;25.75;;;;;;;-7.56;95.71;102768.25;2072964;28;43841;-60
2021/12/22 02:28:15;;;;;;;76.22;24.77;;;;;;;-7.54;95.63;102772.78;2072619;28;45049;-60
2021/12/22 02:29:22;;;;;;;74.55;25.60;;;;;;;-7.55;96.28;102772.69;2073008;28;43060;-60
2021/12/22 02:30:28;;;;;;;70.43;23.00;;;;;;;-7.60;95.64;102768.81;2080587;28;45196;-60
2021/12/22 02:31:37;;;;;;;87.28;25.58;;;;;;;-7.56;96.07;102770.84;2081238;28;36544;-60
2021/12/22 02:33:57;;;;;;;84.82;26.15;;;;;;;-7.55;95.70;102767.47;2080792;28;45123;-60
2021/12/22 02:35:03;;;;;;;81.38;26.52;;;;;;;-7.58;95.23;102762.03;2081183;28;43455;-60
2021/12/22 02:36:21;;;;;;;70.68;23.50;;;;;;;-7.55;96.11;102762.28;2080925;28;45667;-60
2021/12/22 02:37:25;;;;;;;89.15;26.30;;;;;;;-7.52;96.31;102757.31;2080976;28;45567;-60
2021/12/22 02:38:30;;;;;;;76.15;24.40;;;;;;;-7.48;96.58;102767.19;2080466;28;45586;-60
2021/12/22 02:39:31;;;;;;;91.93;28.20;;;;;;;-7.45;96.63;102763.91;2071791;28;45180;-60
2021/12/22 02:40:35;;;;;;;92.97;30.30;;;;;;;-7.41;96.74;102769.50;2072312;28;43239;-60
2021/12/22 02:41:38;;;;;;;82.85;26.35;;;;;;;-7.43;96.63;102765.84;2080725;28;43956;-60
2021/12/22 02:42:41;;;;;;;91.55;27.45;;;;;;;-7.36;96.40;102768.13;2081234;28;26858;-59
2021/12/22 02:43:50;;;;;;;91.38;29.38;;;;;;;-7.38;97.19;102769.72;2080653;28;40583;-60
2021/12/22 02:44:52;;;;;;;90.88;28.30;;;;;;;-7.39;96.45;102767.91;2080553;28;45044;-60
2021/12/22 02:45:54;;;;;;;75.30;25.13;;;;;;;-7.41;96.16;102772.09;2081219;28;42179;-60
2021/12/22 02:46:56;;;;;;;86.50;28.33;;;;;;;-7.40;96.51;102765.19;2080930;28;44134;-60
2021/12/22 02:47:58;;;;;;;89.72;28.15;;;;;;;-7.44;95.85;102763.13;2080993;28;34789;-60
2021/12/22 02:49:06;;;;;;;67.53;24.58;;;;;;;-7.50;96.04;102767.06;2073267;28;20368;-60
2021/12/22 02:50:10;;;;;;;54.53;18.98;;;;;;;-7.52;95.06;102767.72;2073051;28;44182;-60
2021/12/22 02:51:13;;;;;;;76.93;27.70;;;;;;;-7.51;95.13;102761.72;2072903;28;44528;-60
2021/12/22 02:52:16;;;;;;;77.05;26.00;;;;;;;-7.55;94.89;102768.38;2073498;28;44028;-60
2021/12/22 02:53:18;;;;;;;69.53;23.73;;;;;;;-7.53;95.74;102771.13;2080612;28;46539;-60
2021/12/22 02:54:26;;;;;;;89.55;28.20;;;;;;;-7.53;95.71;102766.81;2080325;28;42395;-59
2021/12/22 02:55:40;;;;;;;74.45;23.33;;;;;;;-7.55;96.09;102768.38;2080332;28;45169;-60
2021/12/22 02:57:50;;;;;;;75.60;24.17;;;;;;;-7.55;95.97;102764.88;2080281;28;45127;-60
2021/12/22 03:00:27;;;;;;;83.63;27.27;;;;;;;-7.50;96.17;102761.84;2080500;28;42088;-60
2021/12/22 03:02:45;;;;;;;81.75;24.85;;;;;;;-7.45;96.15;102769.13;2080224;28;46201;-60
2021/12/22 03:04:06;;;;;;;88.80;29.30;;;;;;;-7.44;96.30;102769.25;2080816;28;44324;-60
2021/12/22 03:05:09;;;;;;;72.97;22.38;;;;;;;-7.43;96.91;102768.44;2080320;28;44528;-60
2021/12/22 03:06:14;;;;;;;87.70;26.65;;;;;;;-7.43;96.00;102768.44;2080646;28;42392;-60
2021/12/22 03:07:18;;;;;;;82.80;26.77;;;;;;;-7.40;96.81;102768.69;2080593;28;44362;-60
2021/12/22 03:08:19;;;;;;;85.03;27.83;;;;;;;-7.41;96.38;102760.75;2080725;28;46016;-60
2021/12/22 03:09:31;;;;;;;79.43;25.33;;;;;;;-7.43;95.58;102763.22;2081196;28;43802;-59
2021/12/22 03:10:34;;;;;;;73.93;25.08;;;;;;;-7.41;96.09;102769.50;2080781;28;45263;-59
2021/12/22 03:11:36;;;;;;;76.40;24.30;;;;;;;-7.42;96.21;102767.66;2080825;28;44668;-60
2021/12/22 03:12:39;;;;;;;88.10;27.13;;;;;;;-7.38;96.55;102772.31;2081011;28;29391;-60
2021/12/22 03:13:41;;;;;;;80.72;27.55;;;;;;;-7.37;96.25;102774.16;2080494;28;46402;-60
2021/12/22 03:14:43;;;;;;;93.60;27.25;;;;;;;-7.38;95.90;102771.41;2071586;28;43714;-60
2021/12/22 03:15:45;;;;;;;78.78;25.17;;;;;;;-7.40;96.07;102778.19;2072081;28;29125;-60
2021/12/22 03:16:49;;;;;;;97.45;29.52;;;;;;;-7.36;96.06;102765.53;2080734;28;44314;-60
2021/12/22 03:17:57;;;;;;;99.45;29.85;;;;;;;-7.37;96.16;102766.34;2081215;28;20295;-60
2021/12/22 03:18:59;;;;;;;93.35;28.90;;;;;;;-7.36;96.66;102765.53;2071945;28;46417;-60
2021/12/22 03:20:01;;;;;;;102.85;28.15;;;;;;;-7.33;96.61;102771.00;2072506;28;43395;-60
2021/12/22 03:21:21;;;;;;;97.30;26.27;;;;;;;-7.30;96.83;102771.25;2071008;28;45617;-60
2021/12/22 03:22:23;;;;;;;103.47;29.92;;;;;;;-7.30;96.40;102766.03;2075775;28;26344;-60
2021/12/22 03:23:25;;;;;;;110.05;32.20;;;;;;;-7.25;97.03;102766.38;2080660;28;45348;-60
2021/12/22 03:24:29;;;;;;;102.45;29.00;;;;;;;-7.25;96.67;102762.88;2080316;28;46403;-60
2021/12/22 03:25:31;;;;;;;129.95;33.20;;;;;;;-7.22;97.20;102763.13;2080436;28;43741;-60
2021/12/22 03:26:41;;;;;;;90.45;25.52;;;;;;;-7.24;96.89;102767.31;2080380;28;42961;-60
2021/12/22 03:27:52;;;;;;;115.22;30.70;;;;;;;-7.23;96.33;102767.44;2080962;28;28284;-60
2021/12/22 03:28:53;;;;;;;116.38;30.23;;;;;;;-7.25;95.88;102765.47;2071604;28;43172;-61
2021/12/22 03:29:55;;;;;;;86.57;22.75;;;;;;;-7.27;96.32;102770.56;2072631;28;44097;-60
2021/12/22 03:30:59;;;;;;;92.45;28.08;;;;;;;-7.31;95.88;102772.00;2080200;28;43456;-58
2021/12/22 03:32:01;;;;;;;106.82;31.45;;;;;;;-7.29;96.14;102772.13;2079867;28;42479;-58
2021/12/22 03:33:03;;;;;;;129.45;33.08;;;;;;;-7.26;96.40;102774.09;2080914;28;29112;-58
2021/12/22 03:34:06;;;;;;;110.05;31.80;;;;;;;-7.31;95.86;102764.22;2080752;28;44176;-58
2021/12/22 03:35:15;;;;;;;106.43;28.42;;;;;;;-7.33;95.59;102771.00;2080543;28;45587;-58
2021/12/22 03:36:17;;;;;;;129.07;32.72;;;;;;;-7.30;96.00;102763.44;2071467;28;44540;-58
2021/12/22 03:37:19;;;;;;;102.28;28.08;;;;;;;-7.31;96.18;102759.00;2073202;28;43814;-59
2021/12/22 03:38:21;;;;;;;105.40;29.15;;;;;;;-7.30;96.20;102753.03;2080685;28;32317;-58
2021/12/22 03:39:22;;;;;;;132.63;35.72;;;;;;;-7.25;96.63;102758.56;2080199;28;42099;-59
2021/12/22 03:40:27;;;;;;;117.93;32.85;;;;;;;-7.30;96.66;102758.22;2080497;28;44032;-59
2021/12/22 03:41:29;;;;;;;82.18;24.83;;;;;;;-7.34;95.96;102757.84;2080570;28;45711;-58
2021/12/22 03:42:36;;;;;;;88.93;25.10;;;;;;;-7.36;95.34;102757.72;2081217;28;21112;-58
2021/12/22 03:43:38;;;;;;;98.80;24.75;;;;;;;-7.37;96.00;102758.53;2080297;28;46657;-59
2021/12/22 03:44:40;;;;;;;118.68;31.73;;;;;;;-7.38;95.75;102754.09;2080477;28;42479;-58
2021/12/22 03:45:42;;;;;;;88.70;24.40;;;;;;;-7.41;95.35;102760.75;2079838;28;44511;-58
2021/12/22 03:46:44;;;;;;;108.50;30.10;;;;;;;-7.39;96.07;102752.31;2079901;28;44948;-58
2021/12/22 03:47:47;;;;;;;94.53;26.08;;;;;;;-7.37;95.91;102757.63;2080359;28;31307;-60
2021/12/22 03:48:49;;;;;;;108.65;31.85;;;;;;;-7.39;95.61;102761.78;2079717;28;45251;-61
2021/12/22 03:49:54;;;;;;;107.53;27.90;;;;;;;-7.36;96.09;102757.72;2080616;28;29158;-60
2021/12/22 03:50:55;;;;;;;109.75;31.55;;;;;;;-7.34;96.47;102756.19;2080446;28;45365;-60
2021/12/22 03:52:00;;;;;;;98.40;29.35;;;;;;;-7.35;96.35;102751.75;2080400;28;44685;-57
2021/12/22 03:53:03;;;;;;;124.22;33.03;;;;;;;-7.35;96.20;102750.84;2080857;28;45357;-59
2021/12/22 03:54:08;;;;;;;117.97;31.60;;;;;;;-7.31;96.12;102748.59;2081364;28;28314;-59
2021/12/22 03:55:10;;;;;;;115.50;32.80;;;;;;;-7.24;96.22;102743.88;2080875;28;43679;-60
2021/12/22 03:56:12;;;;;;;121.18;31.38;;;;;;;-7.26;96.69;102748.06;2071479;28;45444;-58
2021/12/22 03:57:14;;;;;;;107.95;30.27;;;;;;;-7.29;96.12;102747.00;2071679;28;45174;-58
2021/12/22 03:58:16;;;;;;;130.70;34.65;;;;;;;-7.26;95.90;102750.69;2080279;28;42053;-58
2021/12/22 03:59:18;;;;;;;117.60;32.08;;;;;;;-7.29;96.47;102747.00;2071672;28;34689;-59
2021/12/22 04:00:22;;;;;;;116.93;32.22;;;;;;;-7.30;96.11;102750.44;2071662;28;44535;-59
2021/12/22 04:01:24;;;;;;;119.10;31.40;;;;;;;-7.30;95.98;102740.00;2080376;28;45279;-58
2021/12/22 04:02:28;;;;;;;103.78;27.52;;;;;;;-7.30;96.30;102744.31;2080007;28;45043;-58
2021/12/22 04:03:33;;;;;;;112.45;30.67;;;;;;;-7.29;96.38;102738.31;2071902;28;43614;-58
2021/12/22 04:04:37;;;;;;;103.68;28.95;;;;;;;-7.31;96.22;102747.69;2073371;28;20288;-58
2021/12/22 04:05:39;;;;;;;98.68;28.77;;;;;;;-7.32;95.91;102744.19;2080105;28;44849;-60
2021/12/22 04:06:43;;;;;;;115.43;30.73;;;;;;;-7.33;95.72;102744.06;2080342;28;43983;-58
2021/12/22 04:07:45;;;;;;;91.82;25.52;;;;;;;-7.32;95.68;102751.06;2080890;28;30355;-58
2021/12/22 04:08:47;;;;;;;114.10;32.25;;;;;;;-7.35;95.68;102751.75;2080273;28;42325;-58
2021/12/22 04:09:53;;;;;;;115.50;31.08;;;;;;;-7.37;95.83;102749.84;2080225;28;45363;-60
2021/12/22 04:10:57;;;;;;;102.80;28.63;;;;;;;-7.41;95.35;102746.06;2081456;28;20260;-58
2021/12/22 04:11:59;;;;;;;127.38;33.63;;;;;;;-7.35;95.66;102749.16;2079927;28;45468;-58
2021/12/22 04:13:03;;;;;;;110.75;28.92;;;;;;;-7.37;95.54;102745.53;2081142;28;20275;-58
2021/12/22 04:14:06;;;;;;;107.10;29.67;;;;;;;-7.39;95.59;102738.38;2080657;28;30594;-60
2021/12/22 04:15:09;;;;;;;124.75;33.50;;;;;;;-7.38;96.19;102745.41;2080170;28;45579;-59
2021/12/22 04:16:10;;;;;;;125.45;32.35;;;;;;;-7.36;96.35;102752.53;2080194;28;44536;-58
2021/12/22 04:17:12;;;;;;;113.57;33.47;;;;;;;-7.41;95.60;102739.94;2071782;28;43964;-61
2021/12/22 04:18:15;;;;;;;107.72;28.75;;;;;;;-7.44;95.17;102747.53;2071574;28;27591;-60
2021/12/22 04:19:19;;;;;;;88.30;26.80;;;;;;;-7.49;95.75;102749.75;2081087;28;20360;-60
2021/12/22 04:20:22;;;;;;;107.60;30.02;;;;;;;-7.46;95.54;102749.06;2081192;28;20269;-58
2021/12/22 04:21:25;;;;;;;94.82;27.33;;;;;;;-7.50;95.67;102745.31;2080216;28;43415;-59
2021/12/22 04:22:27;;;;;;;105.15;30.83;;;;;;;-7.46;95.50;102750.00;2071362;28;42401;-60
2021/12/22 04:23:28;;;;;;;94.45;27.95;;;;;;;-7.53;95.12;102751.19;2071433;28;45236;-61
2021/12/22 04:24:31;;;;;;;93.38;27.58;;;;;;;-7.54;95.26;102743.28;2080835;28;45671;-60
2021/12/22 04:25:36;;;;;;;101.38;27.85;;;;;;;-7.52;94.99;102753.03;2080840;28;45231;-60
2021/12/22 04:26:39;;;;;;;87.20;27.20;;;;;;;-7.56;95.14;102744.84;2080538;28;31103;-61
2021/12/22 04:27:40;;;;;;;87.88;28.30;;;;;;;-7.59;95.15;102755.00;2080389;28;43253;-60
2021/12/22 04:28:42;;;;;;;79.10;24.45;;;;;;;-7.59;95.07;102755.00;2080186;28;45704;-60
2021/12/22 04:29:44;;;;;;;107.10;30.50;;;;;;;-7.62;95.29;102749.56;2080728;28;33227;-61
2021/12/22 04:30:49;;;;;;;94.97;26.23;;;;;;;-7.59;95.01;102752.41;2080126;28;43815;-58
2021/12/22 04:31:51;;;;;;;104.50;30.50;;;;;;;-7.60;95.35;102748.00;2071289;28;45158;-58
2021/12/22 04:32:52;;;;;;;92.93;26.58;;;;;;;-7.64;95.21;102746.84;2071906;28;43632;-58
2021/12/22 04:33:54;;;;;;;80.80;25.63;;;;;;;-7.65;94.72;102744.13;2079537;28;44147;-60
2021/12/22 04:34:56;;;;;;;101.35;29.23;;;;;;;-7.65;94.95;102744.13;2080766;28;35318;-60
2021/12/22 04:35:57;;;;;;;93.65;27.10;;;;;;;-7.68;94.79;102739.56;2080452;28;29741;-61
2021/12/22 04:36:59;;;;;;;101.95;28.00;;;;;;;-7.70;95.05;102747.28;2080252;28;46245;-58
2021/12/22 04:38:01;;;;;;;93.85;27.83;;;;;;;-7.72;94.96;102747.91;2080261;28;33965;-59
2021/12/22 04:39:05;;;;;;;110.85;30.35;;;;;;;-7.64;95.24;102748.50;2080233;28;43967;-60
2021/12/22 04:40:08;;;;;;;85.78;27.60;;;;;;;-7.67;96.17;102744.00;2079984;28;46224;-59
2021/12/22 04:41:09;;;;;;;103.78;31.67;;;;;;;-7.66;95.53;102740.63;2080946;28;27601;-58
2021/12/22 04:42:11;;;;;;;126.22;32.45;;;;;;;-7.63;95.88;102745.16;2080054;28;44179;-59
2021/12/22 04:43:13;;;;;;;120.43;32.17;;;;;;;-7.68;95.18;102748.28;2079910;28;43604;-59
2021/12/22 04:44:15;;;;;;;92.90;27.02;;;;;;;-7.71;95.11;102745.44;2080225;28;43826;-60
2021/12/22 04:45:17;;;;;;;98.35;30.02;;;;;;;-7.68;94.88;102743.09;2079889;28;44984;-61
2021/12/22 04:46:23;;;;;;;102.70;28.65;;;;;;;-7.70;94.92;102746.34;2062869;28;42327;-58
2021/12/22 04:47:25;;;;;;;93.57;27.58;;;;;;;-7.73;95.33;102740.91;2056565;28;45516;-61
2021/12/22 04:48:31;;;;;;;93.03;27.45;;;;;;;-7.74;95.00;102745.19;2072775;28;20297;-60
2021/12/22 04:49:33;;;;;;;93.43;28.55;;;;;;;-7.71;95.46;102734.13;2080904;28;33465;-61
2021/12/22 04:50:35;;;;;;;90.43;28.92;;;;;;;-7.71;95.84;102735.03;2080163;28;44810;-60
2021/12/22 04:51:41;;;;;;;93.00;28.25;;;;;;;-7.74;95.53;102739.97;2079813;28;43758;-61
2021/12/22 04:53:00;;;;;;;93.43;29.92;;;;;;;-7.69;95.68;102735.16;2079888;28;44362;-60
2021/12/22 04:54:18;;;;;;;96.13;28.35;;;;;;;-7.64;96.19;102731.25;2071120;28;44709;-58
2021/12/22 04:55:21;;;;;;;90.38;26.35;;;;;;;-7.72;96.21;102733.22;2076759;28;45398;-61
2021/12/22 04:56:23;;;;;;;71.25;24.77;;;;;;;-7.73;95.60;102726.22;2079971;28;45222;-58
2021/12/22 04:57:27;;;;;;;77.65;25.90;;;;;;;-7.73;95.54;102731.41;2080405;28;43699;-60
2021/12/22 04:58:29;;;;;;;81.60;25.63;;;;;;;-7.78;95.19;102732.72;2079163;28;43008;-60
2021/12/22 04:59:31;;;;;;;81.20;27.08;;;;;;;-7.75;95.30;102730.38;2079994;28;44540;-60
2021/12/22 05:00:36;;;;;;;73.75;27.50;;;;;;;-7.76;95.34;102735.47;2079540;28;45321;-58
2021/12/22 05:01:37;;;;;;;86.57;28.33;;;;;;;-7.68;96.11;102730.09;2079325;28;41199;-58